Time;durP1;ratioP1;P1;durP2;ratioP2;P2;SDS_P1;SDS_P2;PMS_P1;PMS_P2;Temp;Humidity;BMP_temperature;BMP_pressure;BME280_temperature;BME280_humidity;BME280_pressure;Samples;Min_cycle;Max_cycle;Signal;HPM_P1;HPM_P2
2022/10/28 00:01:04;;;;;;;5.60;3.08;;;;;;;;;;4952796;29;20035;-84
2022/10/28 00:03:31;;;;;;;4.03;2.75;;;;;;;;;;4920156;29;20023;-83
2022/10/28 00:06:04;;;;;;;4.50;3.50;;;;;;;;;;4952475;29;20071;-84
2022/10/28 00:08:29;;;;;;;7.05;2.53;;;;;;;;;;4935916;29;20027;-84
2022/10/28 00:11:10;;;;;;;5.45;2.75;;;;;;;;;;4920535;28;20208;-84
2022/10/28 00:13:37;;;;;;;5.75;2.85;;;;;;;;;;4956546;28;20073;-84
2022/10/28 00:16:23;;;;;;;4.50;2.58;;;;;;;;;;4959750;28;20114;-84
2022/10/28 00:18:52;;;;;;;4.60;2.35;;;;;;;;;;4959652;28;20481;-84
2022/10/28 00:21:20;;;;;;;5.38;3.00;;;;;;;;;;4940408;28;20037;-84
2022/10/28 00:23:45;;;;;;;3.20;2.45;;;;;;;;;;4923876;29;20058;-84
2022/10/28 00:26:15;;;;;;;4.85;2.67;;;;;;;;;;4939405;29;20391;-84
2022/10/28 00:28:46;;;;;;;4.85;2.38;;;;;;;;;;4955641;28;20837;-84
2022/10/28 00:31:14;;;;;;;4.72;2.78;;;;;;;;;;4924370;29;20151;-84
2022/10/28 00:33:39;;;;;;;5.78;3.13;;;;;;;;;;4923723;29;20105;-84
2022/10/28 00:36:10;;;;;;;4.72;2.42;;;;;;;;;;4939615;29;20063;-85
2022/10/28 00:38:36;;;;;;;4.75;2.88;;;;;;;;;;4923510;29;20388;-84
2022/10/28 00:41:03;;;;;;;3.90;2.50;;;;;;;;;;4939608;29;20037;-84
2022/10/28 00:43:40;;;;;;;5.90;3.25;;;;;;;;;;4939513;29;20027;-84
2022/10/28 00:46:17;;;;;;;5.38;3.10;;;;;;;;;;4940416;29;20031;-84
2022/10/28 00:48:44;;;;;;;5.47;2.83;;;;;;;;;;4940220;29;20058;-84
2022/10/28 00:51:10;;;;;;;3.83;2.55;;;;;;;;;;4939636;29;20039;-84
2022/10/28 00:53:37;;;;;;;4.15;2.53;;;;;;;;;;4923327;29;20059;-84
2022/10/28 00:56:03;;;;;;;3.72;2.17;;;;;;;;;;4939001;29;20039;-84
2022/10/28 00:58:28;;;;;;;4.57;2.33;;;;;;;;;;4939289;29;20038;-84
2022/10/28 01:00:54;;;;;;;4.63;2.33;;;;;;;;;;4955190;29;20039;-84
2022/10/28 01:03:20;;;;;;;4.20;2.40;;;;;;;;;;4938884;29;20039;-84
2022/10/28 01:05:47;;;;;;;4.88;2.50;;;;;;;;;;4939349;29;20031;-84
2022/10/28 01:08:12;;;;;;;4.47;2.67;;;;;;;;;;4922985;29;20045;-84
2022/10/28 01:10:48;;;;;;;4.15;2.35;;;;;;;;;;4938999;29;20035;-84
2022/10/28 01:13:20;;;;;;;6.47;2.90;;;;;;;;;;4954819;28;20053;-83
2022/10/28 01:15:48;;;;;;;;;;;;;;;;;;4955595;29;20389;-84
2022/10/28 01:18:36;;;;;;;5.72;2.67;;;;;;;;;;4954763;28;19953;-84
2022/10/28 01:21:12;;;;;;;4.47;2.60;;;;;;;;;;4954729;29;20035;-84
2022/10/28 01:23:57;;;;;;;3.63;2.50;;;;;;;;;;4954603;28;20385;-83
2022/10/28 01:26:33;;;;;;;4.25;2.83;;;;;;;;;;4954028;28;20031;-84
2022/10/28 01:29:05;;;;;;;3.78;2.30;;;;;;;;;;4954383;29;20517;-84
2022/10/28 01:32:05;;;;;;;4.45;2.58;;;;;;;;;;4971004;28;20706;-84
2022/10/28 01:34:33;;;;;;;3.38;2.15;;;;;;;;;;4930869;29;20513;-84
2022/10/28 01:37:18;;;;;;;4.10;2.55;;;;;;;;;;4954404;29;20038;-83
2022/10/28 01:39:54;;;;;;;4.25;2.50;;;;;;;;;;4922631;29;20023;-84
2022/10/28 01:42:51;;;;;;;4.22;2.30;;;;;;;;;;4955551;28;20107;-84
2022/10/28 01:45:27;;;;;;;5.35;2.80;;;;;;;;;;4956433;28;20051;-84
2022/10/28 01:48:00;;;;;;;3.40;2.45;;;;;;;;;;4922711;29;20033;-84
2022/10/28 01:50:44;;;;;;;4.55;2.47;;;;;;;;;;4938133;29;20122;-84
2022/10/28 01:53:12;;;;;;;3.65;2.67;;;;;;;;;;4970090;28;20031;-84
2022/10/28 01:55:41;;;;;;;4.70;2.53;;;;;;;;;;4938301;29;20074;-84
2022/10/28 01:58:06;;;;;;;3.40;1.95;;;;;;;;;;4938176;29;20094;-84
2022/10/28 02:00:33;;;;;;;3.38;2.22;;;;;;;;;;4954021;29;20489;-84
2022/10/28 02:02:58;;;;;;;3.53;2.10;;;;;;;;;;4937809;28;20062;-84
2022/10/28 02:05:46;;;;;;;5.00;2.60;;;;;;;;;;4937756;29;20031;-84
2022/10/28 02:08:26;;;;;;;4.20;2.80;;;;;;;;;;4938294;29;20082;-84
2022/10/28 02:11:23;;;;;;;3.92;2.38;;;;;;;;;;4954593;28;20078;-83
2022/10/28 02:14:00;;;;;;;4.93;2.00;;;;;;;;;;4970115;28;20474;-84
2022/10/28 02:16:31;;;;;;;4.20;2.38;;;;;;;;;;4969923;28;20062;-84
2022/10/28 02:19:02;;;;;;;5.35;2.55;;;;;;;;;;4969204;28;20039;-83
2022/10/28 02:22:03;;;;;;;5.43;2.15;;;;;;;;;;4921871;29;20034;-83
2022/10/28 02:24:57;;;;;;;4.97;2.88;;;;;;;;;;4930422;29;20039;-84
2022/10/28 02:27:35;;;;;;;3.95;2.03;;;;;;;;;;4955777;28;20062;-84
2022/10/28 02:30:01;;;;;;;3.15;2.08;;;;;;;;;;4936216;29;20043;-84
2022/10/28 02:32:27;;;;;;;4.60;2.60;;;;;;;;;;4969743;28;20051;-83
2022/10/28 02:34:55;;;;;;;3.95;2.50;;;;;;;;;;4920946;29;20035;-84
2022/10/28 02:37:22;;;;;;;3.58;1.90;;;;;;;;;;4937368;29;20035;-84
2022/10/28 02:39:51;;;;;;;3.97;2.50;;;;;;;;;;4937491;29;20061;-84
2022/10/28 02:42:20;;;;;;;3.80;2.20;;;;;;;;;;4937608;29;20117;-84
2022/10/28 02:44:48;;;;;;;4.38;2.47;;;;;;;;;;4937197;29;20043;-83
2022/10/28 02:47:18;;;;;;;3.85;2.10;;;;;;;;;;4937422;29;20138;-84
2022/10/28 02:49:44;;;;;;;5.65;2.65;;;;;;;;;;4937359;28;20065;-84
2022/10/28 02:52:12;;;;;;;4.45;2.80;;;;;;;;;;4921618;29;20031;-84
2022/10/28 02:54:46;;;;;;;4.22;1.75;;;;;;;;;;4936801;29;20039;-83
2022/10/28 02:57:13;;;;;;;3.03;1.95;;;;;;;;;;4937575;29;20027;-83
2022/10/28 02:59:41;;;;;;;3.70;1.83;;;;;;;;;;4937033;29;20486;-84
2022/10/28 03:02:08;;;;;;;5.13;2.47;;;;;;;;;;4921088;29;20054;-84
2022/10/28 03:04:34;;;;;;;3.90;2.05;;;;;;;;;;4921534;28;20054;-84
2022/10/28 03:07:00;;;;;;;4.15;2.03;;;;;;;;;;4937078;29;20485;-83
2022/10/28 03:09:28;;;;;;;4.70;2.50;;;;;;;;;;4920797;29;20042;-84
2022/10/28 03:11:53;;;;;;;3.70;2.40;;;;;;;;;;4944682;28;20027;-83
2022/10/28 03:14:19;;;;;;;4.55;2.22;;;;;;;;;;4940221;28;20468;-84
2022/10/28 03:16:44;;;;;;;3.72;2.13;;;;;;;;;;4955698;28;20041;-84
2022/10/28 03:19:10;;;;;;;3.55;2.25;;;;;;;;;;4955858;28;20043;-83
2022/10/28 03:21:36;;;;;;;4.03;2.05;;;;;;;;;;4956345;28;20437;-84
2022/10/28 03:24:01;;;;;;;5.35;2.28;;;;;;;;;;4939961;29;20051;-83
2022/10/28 03:26:27;;;;;;;3.20;1.90;;;;;;;;;;4952317;29;20102;-83
2022/10/28 03:28:53;;;;;;;3.60;1.90;;;;;;;;;;4936583;29;20389;-83
2022/10/28 03:31:20;;;;;;;4.82;2.10;;;;;;;;;;4920626;29;20035;-84
2022/10/28 03:33:45;;;;;;;4.32;1.73;;;;;;;;;;4936313;29;20058;-83
2022/10/28 03:36:11;;;;;;;5.55;2.13;;;;;;;;;;4936429;29;20047;-84
2022/10/28 03:38:36;;;;;;;3.25;2.10;;;;;;;;;;4936593;29;20046;-83
2022/10/28 03:41:01;;;;;;;5.70;2.70;;;;;;;;;;4936542;29;20397;-84
2022/10/28 03:43:28;;;;;;;5.63;2.50;;;;;;;;;;4920572;29;20118;-83
2022/10/28 03:45:53;;;;;;;4.18;1.92;;;;;;;;;;4936596;29;20031;-83
2022/10/28 03:48:20;;;;;;;4.35;2.20;;;;;;;;;;4936787;29;20443;-84
2022/10/28 03:50:46;;;;;;;4.63;2.22;;;;;;;;;;4940616;29;20028;-84
2022/10/28 03:53:13;;;;;;;2.65;1.98;;;;;;;;;;4924611;28;20031;-83
2022/10/28 03:55:38;;;;;;;3.78;1.92;;;;;;;;;;4923942;29;20038;-84
2022/10/28 03:58:04;;;;;;;4.80;2.35;;;;;;;;;;4924318;29;20043;-83
2022/10/28 04:00:29;;;;;;;3.50;1.85;;;;;;;;;;4939836;29;20066;-84
2022/10/28 04:02:55;;;;;;;6.20;2.00;;;;;;;;;;4939893;29;20383;-84
2022/10/28 04:05:20;;;;;;;3.88;2.20;;;;;;;;;;4939963;29;20039;-83
2022/10/28 04:07:46;;;;;;;3.72;2.20;;;;;;;;;;4939911;29;20039;-84
2022/10/28 04:10:11;;;;;;;2.88;1.95;;;;;;;;;;4940064;29;20058;-84
2022/10/28 04:12:37;;;;;;;4.07;2.60;;;;;;;;;;4947415;29;20032;-84
2022/10/28 04:15:03;;;;;;;4.63;2.10;;;;;;;;;;4952303;28;20031;-83
2022/10/28 04:17:28;;;;;;;4.82;2.10;;;;;;;;;;4929827;29;20038;-84
2022/10/28 04:19:54;;;;;;;5.82;2.22;;;;;;;;;;4964639;28;20042;-84
2022/10/28 04:22:19;;;;;;;3.83;1.88;;;;;;;;;;4952611;29;20042;-84
2022/10/28 04:24:45;;;;;;;3.33;1.95;;;;;;;;;;4952604;28;20042;-84
2022/10/28 04:27:10;;;;;;;5.18;2.50;;;;;;;;;;4952097;29;20047;-83
2022/10/28 04:29:36;;;;;;;3.55;1.92;;;;;;;;;;4955517;29;20027;-83
2022/10/28 04:32:02;;;;;;;3.10;1.83;;;;;;;;;;4939768;29;20031;-84
2022/10/28 04:34:28;;;;;;;4.05;2.00;;;;;;;;;;4923478;29;20041;-84
2022/10/28 04:36:55;;;;;;;5.35;2.42;;;;;;;;;;4939301;29;20039;-84
2022/10/28 04:39:20;;;;;;;3.85;2.13;;;;;;;;;;4939743;29;20058;-84
2022/10/28 04:41:47;;;;;;;3.42;1.90;;;;;;;;;;4939340;29;20035;-84
2022/10/28 04:44:12;;;;;;;3.67;1.92;;;;;;;;;;4923697;29;20063;-83
2022/10/28 04:46:39;;;;;;;3.38;2.08;;;;;;;;;;4939598;29;20071;-84
2022/10/28 04:49:04;;;;;;;3.42;2.05;;;;;;;;;;4923576;29;20031;-84
2022/10/28 04:51:30;;;;;;;3.75;2.28;;;;;;;;;;4939492;29;20039;-84
2022/10/28 04:53:55;;;;;;;3.58;1.50;;;;;;;;;;4923251;29;20038;-84
2022/10/28 04:56:21;;;;;;;4.53;2.22;;;;;;;;;;4923311;29;20537;-84
2022/10/28 04:58:47;;;;;;;3.33;1.60;;;;;;;;;;4938823;29;20445;-84
2022/10/28 05:01:13;;;;;;;3.40;1.77;;;;;;;;;;4938775;29;20077;-83
2022/10/28 05:03:39;;;;;;;2.80;1.67;;;;;;;;;;4939023;29;20067;-83
2022/10/28 05:06:05;;;;;;;3.72;2.30;;;;;;;;;;4939119;29;20035;-84
2022/10/28 05:08:31;;;;;;;2.65;1.65;;;;;;;;;;4938959;29;20374;-83
2022/10/28 05:10:57;;;;;;;2.58;1.65;;;;;;;;;;4939131;28;20027;-83
2022/10/28 05:13:23;;;;;;;5.35;2.40;;;;;;;;;;4957733;28;20058;-83
2022/10/28 05:15:49;;;;;;;4.00;1.83;;;;;;;;;;4958228;28;20035;-83
2022/10/28 05:18:14;;;;;;;3.58;1.90;;;;;;;;;;4958208;28;20085;-84
2022/10/28 05:20:40;;;;;;;3.20;1.90;;;;;;;;;;4958258;28;20062;-83
2022/10/28 05:23:05;;;;;;;3.42;2.03;;;;;;;;;;4974115;28;20541;-84
2022/10/28 05:25:32;;;;;;;3.42;2.30;;;;;;;;;;4973648;28;20047;-83
2022/10/28 05:27:58;;;;;;;2.88;1.60;;;;;;;;;;4957636;28;20035;-84
2022/10/28 05:30:24;;;;;;;3.08;1.77;;;;;;;;;;4926502;29;20077;-84
2022/10/28 05:32:50;;;;;;;4.18;2.08;;;;;;;;;;4938457;29;20035;-83
2022/10/28 05:35:15;;;;;;;3.55;2.05;;;;;;;;;;4954713;28;20049;-83
2022/10/28 05:37:42;;;;;;;3.47;1.63;;;;;;;;;;4954069;29;20046;-83
2022/10/28 05:40:08;;;;;;;3.10;1.73;;;;;;;;;;4954702;29;20089;-83
2022/10/28 05:42:40;;;;;;;5.93;2.17;;;;;;;;;;4922446;29;20073;-84
2022/10/28 05:45:06;;;;;;;;;;;;;;;;;;4954623;28;20039;-84
2022/10/28 05:47:31;;;;;;;3.00;1.85;;;;;;;;;;4938718;29;19910;-84
2022/10/28 05:49:57;;;;;;;5.03;2.00;;;;;;;;;;4954540;28;20078;-83
2022/10/28 05:52:22;;;;;;;4.43;1.90;;;;;;;;;;4954213;29;20031;-84
2022/10/28 05:54:48;;;;;;;3.42;1.70;;;;;;;;;;4953998;28;20442;-84
2022/10/28 05:57:13;;;;;;;3.30;1.88;;;;;;;;;;4953550;29;20445;-84
2022/10/28 05:59:39;;;;;;;4.10;1.98;;;;;;;;;;4938266;29;20031;-84
2022/10/28 06:02:04;;;;;;;3.17;2.00;;;;;;;;;;4954366;29;20035;-83
2022/10/28 06:04:30;;;;;;;4.30;2.13;;;;;;;;;;4954099;28;20043;-84
2022/10/28 06:06:55;;;;;;;4.97;2.50;;;;;;;;;;4954263;28;20397;-84
2022/10/28 06:09:21;;;;;;;3.58;1.70;;;;;;;;;;4954148;29;20035;-84
2022/10/28 06:11:46;;;;;;;2.53;1.33;;;;;;;;;;4933368;29;20044;-83
2022/10/28 06:14:12;;;;;;;2.60;1.58;;;;;;;;;;4934930;29;20039;-83
2022/10/28 06:16:37;;;;;;;3.05;1.90;;;;;;;;;;4946981;28;20039;-85
2022/10/28 06:19:03;;;;;;;3.97;1.90;;;;;;;;;;4969818;28;20434;-84
2022/10/28 06:21:28;;;;;;;3.42;1.60;;;;;;;;;;4937824;29;20135;-84
2022/10/28 06:23:54;;;;;;;4.47;1.95;;;;;;;;;;4953541;28;20382;-83
2022/10/28 06:26:19;;;;;;;3.60;1.90;;;;;;;;;;4953461;29;20398;-82
2022/10/28 06:28:47;;;;;;;4.05;1.90;;;;;;;;;;4937051;29;20386;-82
2022/10/28 06:31:12;;;;;;;2.67;1.67;;;;;;;;;;4953631;28;20043;-83
2022/10/28 06:33:38;;;;;;;2.90;1.80;;;;;;;;;;4949673;28;20054;-82
2022/10/28 06:36:03;;;;;;;3.78;1.63;;;;;;;;;;4934051;29;20402;-82
2022/10/28 06:38:29;;;;;;;3.40;1.73;;;;;;;;;;4949888;29;20494;-81
2022/10/28 06:40:56;;;;;;;3.92;1.95;;;;;;;;;;4933548;29;20040;-83
2022/10/28 06:43:22;;;;;;;3.40;1.92;;;;;;;;;;4936410;29;20042;-81
2022/10/28 06:45:52;;;;;;;10.57;2.63;;;;;;;;;;4953647;29;20390;-83
2022/10/28 06:48:18;;;;;;;5.30;2.95;;;;;;;;;;4937810;29;20162;-82
2022/10/28 06:50:43;;;;;;;8.55;3.53;;;;;;;;;;4951342;29;20118;-82
2022/10/28 06:53:10;;;;;;;8.73;3.20;;;;;;;;;;4936473;28;20110;-83
2022/10/28 06:55:36;;;;;;;8.52;3.03;;;;;;;;;;4936403;29;20114;-88
2022/10/28 06:58:03;;;;;;;6.65;3.08;;;;;;;;;;4937063;29;20054;-87
2022/10/28 07:00:29;;;;;;;8.88;3.25;;;;;;;;;;4933900;29;20051;-85
2022/10/28 07:02:56;;;;;;;4.93;3.00;;;;;;;;;;4918115;29;20075;-86
2022/10/28 07:05:22;;;;;;;7.07;3.15;;;;;;;;;;4950784;29;20498;-86
2022/10/28 07:07:49;;;;;;;5.80;2.13;;;;;;;;;;4936635;29;20035;-86
2022/10/28 07:10:14;;;;;;;4.82;2.60;;;;;;;;;;4936902;29;20024;-85
2022/10/28 07:12:40;;;;;;;7.80;3.25;;;;;;;;;;4950926;28;20037;-86
2022/10/28 07:15:06;;;;;;;9.35;3.40;;;;;;;;;;4956336;28;20085;-85
2022/10/28 07:17:31;;;;;;;9.80;3.65;;;;;;;;;;4949843;29;20860;-86
2022/10/28 07:19:57;;;;;;;10.60;4.07;;;;;;;;;;4937956;29;20034;-85
2022/10/28 07:22:23;;;;;;;7.13;2.95;;;;;;;;;;4921115;28;20126;-86
2022/10/28 07:24:51;;;;;;;11.43;5.28;;;;;;;;;;4921365;29;20033;-88
2022/10/28 07:27:18;;;;;;;15.73;6.95;;;;;;;;;;4937089;29;20050;-87
2022/10/28 07:29:43;;;;;;;14.68;6.60;;;;;;;;;;4921353;29;20159;-87
2022/10/28 07:32:09;;;;;;;11.73;5.00;;;;;;;;;;4937204;29;20122;-88
2022/10/28 07:34:35;;;;;;;13.20;5.15;;;;;;;;;;4936643;29;20119;-88
2022/10/28 07:37:04;;;;;;;12.95;6.15;;;;;;;;;;4917685;29;20043;-87
2022/10/28 07:39:32;;;;;;;14.52;6.25;;;;;;;;;;4949865;29;20386;-86
2022/10/28 07:41:59;;;;;;;13.10;5.68;;;;;;;;;;4917921;29;20036;-89
2022/10/28 07:44:25;;;;;;;12.18;5.35;;;;;;;;;;4918209;29;20430;-86
2022/10/28 07:46:51;;;;;;;13.50;6.40;;;;;;;;;;4933954;29;20084;-87
2022/10/28 07:49:17;;;;;;;14.18;5.43;;;;;;;;;;4917901;29;20038;-87
2022/10/28 07:51:43;;;;;;;10.77;4.88;;;;;;;;;;4902068;29;20031;-87
2022/10/28 07:54:10;;;;;;;14.73;5.82;;;;;;;;;;4905300;29;20429;-87
2022/10/28 07:56:35;;;;;;;14.43;6.18;;;;;;;;;;4936603;29;20057;-86
2022/10/28 07:59:01;;;;;;;11.85;5.38;;;;;;;;;;4952570;29;20039;-87
2022/10/28 08:01:27;;;;;;;12.27;5.13;;;;;;;;;;4936384;29;20043;-86
2022/10/28 08:03:53;;;;;;;13.48;5.88;;;;;;;;;;4967703;28;20047;-85
2022/10/28 08:06:19;;;;;;;11.15;5.43;;;;;;;;;;4952363;29;20062;-85
2022/10/28 08:08:46;;;;;;;11.10;5.53;;;;;;;;;;4934709;28;20069;-85
2022/10/28 08:11:17;;;;;;;13.32;5.90;;;;;;;;;;4953367;28;20031;-85
2022/10/28 08:13:43;;;;;;;12.23;5.47;;;;;;;;;;4948810;29;20035;-84
2022/10/28 08:16:08;;;;;;;11.32;5.43;;;;;;;;;;4952235;29;20130;-83
2022/10/28 08:18:34;;;;;;;12.15;4.28;;;;;;;;;;4951741;29;20050;-82
2022/10/28 08:21:01;;;;;;;9.00;4.82;;;;;;;;;;4935477;28;20470;-83
2022/10/28 08:23:27;;;;;;;14.35;4.63;;;;;;;;;;4935792;29;20031;-81
2022/10/28 08:25:52;;;;;;;28.92;6.30;;;;;;;;;;4935761;29;20035;-82
2022/10/28 08:28:17;;;;;;;21.27;5.95;;;;;;;;;;4935918;29;20038;-83
2022/10/28 08:30:44;;;;;;;16.75;5.88;;;;;;;;;;4935858;29;20468;-81
2022/10/28 08:33:09;;;;;;;14.10;4.95;;;;;;;;;;4935512;28;20391;-82
2022/10/28 08:35:35;;;;;;;25.83;6.50;;;;;;;;;;4953686;28;20051;-82
2022/10/28 08:38:01;;;;;;;16.95;5.75;;;;;;;;;;4955212;29;20067;-82
2022/10/28 08:40:47;;;;;;;13.02;5.03;;;;;;;;;;4955341;29;20065;-81
2022/10/28 08:43:29;;;;;;;20.58;5.68;;;;;;;;;;4951690;28;20031;-81
2022/10/28 08:46:10;;;;;;;15.45;4.88;;;;;;;;;;4932592;29;20040;-81
2022/10/28 08:48:36;;;;;;;9.35;4.70;;;;;;;;;;4952399;29;20111;-82
2022/10/28 08:51:19;;;;;;;9.52;4.50;;;;;;;;;;4951579;29;20083;-82
2022/10/28 08:53:59;;;;;;;12.15;4.45;;;;;;;;;;4952041;28;20083;-81
2022/10/28 08:56:45;;;;;;;11.52;4.50;;;;;;;;;;4937362;29;20054;-82
2022/10/28 08:59:22;;;;;;;11.55;4.65;;;;;;;;;;4939497;29;20027;-82
2022/10/28 09:01:53;;;;;;;14.00;5.70;;;;;;;;;;4939208;29;20035;-81
2022/10/28 09:04:28;;;;;;;12.15;4.47;;;;;;;;;;4923163;29;20035;-81
2022/10/28 09:06:53;;;;;;;14.52;4.53;;;;;;;;;;4954514;29;20031;-80
2022/10/28 09:09:20;;;;;;;10.88;4.38;;;;;;;;;;4954634;28;20029;-81
2022/10/28 09:11:48;;;;;;;12.57;4.65;;;;;;;;;;4954539;28;20519;-82
2022/10/28 09:14:27;;;;;;;12.73;4.85;;;;;;;;;;4970683;28;20032;-83
2022/10/28 09:16:59;;;;;;;8.80;3.83;;;;;;;;;;4940065;28;20049;-83
2022/10/28 09:19:37;;;;;;;15.43;5.18;;;;;;;;;;4938189;29;20051;-84
2022/10/28 09:22:47;;;;;;;13.35;4.88;;;;;;;;;;4938618;29;20051;-85
2022/10/28 09:25:47;;;;;;;8.00;4.20;;;;;;;;;;4932893;29;20506;-84
2022/10/28 09:28:40;;;;;;;9.52;4.40;;;;;;;;;;4953858;28;20050;-85
2022/10/28 09:31:09;;;;;;;10.05;3.67;;;;;;;;;;4967472;28;20032;-85
2022/10/28 09:33:34;;;;;;;8.60;3.88;;;;;;;;;;4967016;28;20067;-85
2022/10/28 09:36:02;;;;;;;7.90;3.55;;;;;;;;;;4967617;28;20071;-85
2022/10/28 09:38:33;;;;;;;8.43;3.75;;;;;;;;;;4951376;29;20559;-85
2022/10/28 09:41:18;;;;;;;7.35;3.85;;;;;;;;;;4951075;29;20054;-86
2022/10/28 09:43:52;;;;;;;8.75;3.35;;;;;;;;;;4969550;28;20054;-84
2022/10/28 09:46:17;;;;;;;11.27;3.65;;;;;;;;;;4937536;29;20040;-84
2022/10/28 09:48:51;;;;;;;9.82;4.15;;;;;;;;;;4954420;29;20086;-85
2022/10/28 09:51:43;;;;;;;9.40;3.38;;;;;;;;;;4938454;29;20370;-85
2022/10/28 09:54:10;;;;;;;12.18;4.90;;;;;;;;;;4954076;28;20038;-85
2022/10/28 09:56:37;;;;;;;10.63;3.80;;;;;;;;;;4934562;28;20027;-85
2022/10/28 09:59:03;;;;;;;14.13;3.67;;;;;;;;;;4973336;28;20031;-85
2022/10/28 10:01:32;;;;;;;11.63;4.47;;;;;;;;;;4973546;28;20113;-85
2022/10/28 10:03:57;;;;;;;11.18;4.00;;;;;;;;;;4946716;29;20043;-86
2022/10/28 10:06:44;;;;;;;6.70;3.45;;;;;;;;;;4954395;29;20046;-86
2022/10/28 10:09:15;;;;;;;15.40;4.60;;;;;;;;;;4937441;29;20047;-86
2022/10/28 10:11:45;;;;;;;12.68;3.78;;;;;;;;;;4938231;29;20509;-87
2022/10/28 10:14:17;;;;;;;10.18;3.97;;;;;;;;;;4938457;29;20035;-86
2022/10/28 10:16:48;;;;;;;11.65;3.60;;;;;;;;;;4954190;28;20031;-86
2022/10/28 10:19:14;;;;;;;11.63;4.38;;;;;;;;;;4937730;29;20166;-86
2022/10/28 10:21:46;;;;;;;12.82;4.50;;;;;;;;;;4938081;29;20101;-86
2022/10/28 10:24:28;;;;;;;12.98;4.45;;;;;;;;;;4937515;29;20042;-85
2022/10/28 10:26:56;;;;;;;22.13;5.57;;;;;;;;;;4937867;29;20085;-87
2022/10/28 10:29:23;;;;;;;8.68;3.35;;;;;;;;;;4937869;29;20035;-87
2022/10/28 10:31:48;;;;;;;16.02;3.78;;;;;;;;;;4937612;29;20063;-86
2022/10/28 10:34:21;;;;;;;9.75;3.38;;;;;;;;;;4937232;29;20121;-87
2022/10/28 10:36:51;;;;;;;11.95;4.10;;;;;;;;;;4937478;29;20568;-87
2022/10/28 10:39:21;;;;;;;10.95;3.17;;;;;;;;;;4921634;29;20023;-87
2022/10/28 10:41:48;;;;;;;12.30;3.63;;;;;;;;;;4922186;29;20035;-86
2022/10/28 10:44:19;;;;;;;14.68;3.70;;;;;;;;;;4944074;28;20038;-86
2022/10/28 10:47:09;;;;;;;8.37;3.33;;;;;;;;;;4956799;28;20115;-86
2022/10/28 10:49:35;;;;;;;9.48;3.85;;;;;;;;;;4918349;29;20059;-86
2022/10/28 10:52:06;;;;;;;9.10;3.47;;;;;;;;;;4949287;29;20047;-86
2022/10/28 10:54:32;;;;;;;8.32;4.28;;;;;;;;;;4918530;29;20038;-87
2022/10/28 10:57:17;;;;;;;13.05;5.22;;;;;;;;;;4936181;28;20039;-86
2022/10/28 10:59:47;;;;;;;12.70;5.25;;;;;;;;;;4937153;29;20109;-86
2022/10/28 11:02:26;;;;;;;12.93;7.15;;;;;;;;;;4941556;29;20100;-86
2022/10/28 11:04:56;;;;;;;25.08;11.35;;;;;;;;;;4939924;28;20378;-85
2022/10/28 11:07:21;;;;;;;21.83;11.75;;;;;;;;;;4940433;29;20086;-86
2022/10/28 11:09:48;;;;;;;28.00;16.02;;;;;;;;;;4940796;29;20035;-86
2022/10/28 11:12:30;;;;;;;28.33;14.35;;;;;;;;;;4940270;29;20032;-85
2022/10/28 11:15:27;;;;;;;24.25;14.38;;;;;;;;;;4940171;29;20556;-85
2022/10/28 11:18:03;;;;;;;24.90;13.88;;;;;;;;;;4953145;29;20071;-86
2022/10/28 11:20:34;;;;;;;25.60;12.93;;;;;;;;;;4924539;29;20027;-87
2022/10/28 11:23:25;;;;;;;23.40;13.32;;;;;;;;;;4940084;28;20038;-85
2022/10/28 11:25:54;;;;;;;21.92;11.60;;;;;;;;;;4943022;29;20031;-86
2022/10/28 11:28:43;;;;;;;25.33;11.90;;;;;;;;;;4957908;29;20035;-86
2022/10/28 11:31:25;;;;;;;19.60;9.82;;;;;;;;;;4966067;28;20043;-86
2022/10/28 11:34:28;;;;;;;18.67;9.82;;;;;;;;;;4957757;28;20043;-85
2022/10/28 11:36:57;;;;;;;16.48;8.73;;;;;;;;;;4957976;29;20035;-85
2022/10/28 11:39:40;;;;;;;18.52;8.65;;;;;;;;;;4942463;29;20035;-86
2022/10/28 11:42:16;;;;;;;18.33;9.80;;;;;;;;;;4940240;29;20490;-85
2022/10/28 11:45:12;;;;;;;16.70;7.03;;;;;;;;;;4941088;29;20130;-86
2022/10/28 11:47:54;;;;;;;13.98;8.10;;;;;;;;;;4937701;29;20035;-87
2022/10/28 11:50:20;;;;;;;17.40;7.18;;;;;;;;;;4937656;29;20035;-86
2022/10/28 11:53:15;;;;;;;12.57;6.03;;;;;;;;;;4954734;29;20062;-86
2022/10/28 11:56:00;;;;;;;13.48;5.70;;;;;;;;;;4924067;29;20031;-86
2022/10/28 11:58:35;;;;;;;11.75;5.88;;;;;;;;;;4937911;29;20043;-85
2022/10/28 12:01:09;;;;;;;9.50;5.32;;;;;;;;;;4938908;29;20063;-87
2022/10/28 12:04:02;;;;;;;15.60;6.50;;;;;;;;;;4922025;29;20179;-86
2022/10/28 12:06:42;;;;;;;14.80;6.63;;;;;;;;;;4941933;29;20075;-87
2022/10/28 12:09:27;;;;;;;9.45;4.50;;;;;;;;;;4936064;29;20039;-85
2022/10/28 12:12:11;;;;;;;13.15;5.32;;;;;;;;;;4956431;29;20110;-86
2022/10/28 12:15:31;;;;;;;15.20;4.90;;;;;;;;;;4939949;29;20031;-85
2022/10/28 12:18:01;;;;;;;10.75;4.22;;;;;;;;;;4916464;29;20028;-85
2022/10/28 12:20:33;;;;;;;13.20;4.78;;;;;;;;;;4937711;29;20043;-85
2022/10/28 12:23:03;;;;;;;;;;;;;;;;;;4939035;28;20055;-85
2022/10/28 12:25:31;;;;;;;9.25;4.15;;;;;;;;;;4939446;29;20356;-85
2022/10/28 12:28:22;;;;;;;10.80;3.83;;;;;;;;;;4939713;29;20070;-85
2022/10/28 12:30:48;;;;;;;9.52;3.97;;;;;;;;;;4932744;29;20058;-86
2022/10/28 12:33:16;;;;;;;9.40;4.05;;;;;;;;;;4939618;28;20039;-86
2022/10/28 12:36:04;;;;;;;14.82;4.95;;;;;;;;;;4915034;29;20472;-85
2022/10/28 12:39:16;;;;;;;9.05;4.13;;;;;;;;;;4951155;29;20096;-85
2022/10/28 12:42:02;;;;;;;10.20;4.13;;;;;;;;;;4938286;29;20494;-84
2022/10/28 12:44:28;;;;;;;13.98;4.35;;;;;;;;;;4935757;28;20345;-85
2022/10/28 12:47:02;;;;;;;9.02;3.95;;;;;;;;;;4949032;29;20091;-85
2022/10/28 12:49:54;;;;;;;13.02;4.10;;;;;;;;;;4971375;28;20047;-86
2022/10/28 12:52:30;;;;;;;9.85;3.55;;;;;;;;;;4954938;28;20024;-85
2022/10/28 12:55:02;;;;;;;9.23;3.00;;;;;;;;;;4936397;29;20087;-85
2022/10/28 12:57:28;;;;;;;11.63;3.15;;;;;;;;;;4935665;29;20032;-85
2022/10/28 13:00:00;;;;;;;7.70;3.70;;;;;;;;;;4919742;29;20032;-85
2022/10/28 13:02:28;;;;;;;;;;;;;;;;;;4935463;29;20058;-84
2022/10/28 13:04:54;;;;;;;13.85;5.07;;;;;;;;;;4951634;28;19921;-85
2022/10/28 13:07:46;;;;;;;9.35;3.88;;;;;;;;;;4936244;29;20125;-85
2022/10/28 13:10:23;;;;;;;7.13;3.30;;;;;;;;;;4928780;29;20027;-85
2022/10/28 13:12:51;;;;;;;12.60;4.32;;;;;;;;;;4954658;28;20031;-83
2022/10/28 13:15:35;;;;;;;12.30;4.20;;;;;;;;;;4954447;28;20498;-84
2022/10/28 13:18:38;;;;;;;9.05;3.47;;;;;;;;;;4954863;29;20039;-84
2022/10/28 13:21:23;;;;;;;14.40;4.95;;;;;;;;;;4954486;28;20477;-84
2022/10/28 13:23:57;;;;;;;11.10;4.22;;;;;;;;;;4938470;29;20089;-84
2022/10/28 13:26:33;;;;;;;17.88;5.55;;;;;;;;;;4944698;28;20027;-82
2022/10/28 13:29:00;;;;;;;13.98;4.20;;;;;;;;;;4951102;29;20046;-82
2022/10/28 13:31:43;;;;;;;14.50;4.43;;;;;;;;;;4935353;29;20558;-82
2022/10/28 13:34:08;;;;;;;;;;;;;;;;;;4945368;28;20054;-82
2022/10/28 13:36:41;;;;;;;12.90;4.30;;;;;;;;;;4936504;29;19910;-82
2022/10/28 13:39:42;;;;;;;10.73;4.38;;;;;;;;;;4920724;29;20565;-82
2022/10/28 13:42:14;;;;;;;13.00;4.47;;;;;;;;;;4947243;28;20105;-82
2022/10/28 13:44:49;;;;;;;;;;;;;;;;;;4965785;28;20106;-82
2022/10/28 13:47:15;;;;;;;12.38;4.28;;;;;;;;;;4946844;28;20012;-82
2022/10/28 13:50:13;;;;;;;12.65;4.05;;;;;;;;;;4954401;29;20430;-82
2022/10/28 13:52:42;;;;;;;10.77;4.25;;;;;;;;;;4923490;29;20035;-82
2022/10/28 13:55:43;;;;;;;8.20;4.45;;;;;;;;;;4937222;29;20031;-82
2022/10/28 13:58:20;;;;;;;11.57;3.63;;;;;;;;;;4951022;29;20079;-82
2022/10/28 14:00:46;;;;;;;8.95;3.35;;;;;;;;;;4922656;29;20039;-82
2022/10/28 14:03:18;;;;;;;11.52;4.43;;;;;;;;;;4937501;29;20172;-82
2022/10/28 14:05:44;;;;;;;11.05;3.83;;;;;;;;;;4937815;29;20394;-82
2022/10/28 14:08:32;;;;;;;10.32;3.63;;;;;;;;;;4969914;28;20035;-82
2022/10/28 14:10:57;;;;;;;10.10;3.53;;;;;;;;;;4921622;29;20028;-81
2022/10/28 14:13:23;;;;;;;11.38;3.50;;;;;;;;;;4953699;28;20031;-82
2022/10/28 14:15:48;;;;;;;8.40;3.60;;;;;;;;;;4937959;29;20389;-82
2022/10/28 14:18:13;;;;;;;11.90;4.18;;;;;;;;;;4953698;29;20031;-81
2022/10/28 14:20:39;;;;;;;15.27;4.00;;;;;;;;;;4969065;28;20039;-82
2022/10/28 14:23:19;;;;;;;7.10;3.30;;;;;;;;;;4953632;28;20115;-82
2022/10/28 14:25:50;;;;;;;9.77;3.42;;;;;;;;;;4954195;29;20031;-82
2022/10/28 14:28:31;;;;;;;7.32;3.70;;;;;;;;;;4953550;29;20476;-82
2022/10/28 14:33:38;;;;;;;7.57;3.00;;;;;;;;;;4968346;28;20485;-82
2022/10/28 14:36:18;;;;;;;9.73;3.33;;;;;;;;;;4969317;28;20541;-82
2022/10/28 14:39:02;;;;;;;19.00;4.18;;;;;;;;;;4969086;28;20488;-82
2022/10/28 14:41:35;;;;;;;8.90;3.55;;;;;;;;;;4969146;28;20561;-82
2022/10/28 14:44:28;;;;;;;6.85;3.45;;;;;;;;;;4957969;28;20031;-82
2022/10/28 14:47:06;;;;;;;6.63;3.05;;;;;;;;;;4948760;29;20071;-82
2022/10/28 14:49:31;;;;;;;7.30;3.42;;;;;;;;;;4952921;29;20047;-81
2022/10/28 14:52:12;;;;;;;5.90;2.92;;;;;;;;;;4937308;29;20042;-81
2022/10/28 14:54:47;;;;;;;8.50;3.28;;;;;;;;;;4952527;28;20069;-81
2022/10/28 14:57:12;;;;;;;7.53;3.30;;;;;;;;;;4952406;29;20406;-82
2022/10/28 14:59:42;;;;;;;7.82;2.75;;;;;;;;;;4936884;29;20031;-82
2022/10/28 15:02:19;;;;;;;8.20;3.50;;;;;;;;;;4953065;28;20424;-81
2022/10/28 15:04:46;;;;;;;8.43;3.63;;;;;;;;;;4937300;29;20035;-82
2022/10/28 15:07:18;;;;;;;6.40;2.85;;;;;;;;;;4921113;29;20038;-82
2022/10/28 15:09:44;;;;;;;7.90;3.00;;;;;;;;;;4950517;29;20035;-82